Time;durP1;ratioP1;P1;durP2;ratioP2;P2;SDS_P1;SDS_P2;PMS_P1;PMS_P2;Temp;Humidity;BMP_temperature;BMP_pressure;BME280_temperature;BME280_humidity;BME280_pressure;Samples;Min_cycle;Max_cycle;Signal;HPM_P1;HPM_P2
2022/06/30 00:00:13;;;;;;;9.95;8.70;;;;;;;15.46;99.89;101045.28;1056649;28;20039;-82
2022/06/30 00:00:45;;;;;;;8.80;8.00;;;;;;;15.70;98.99;101052.16;1052610;28;20032;-82
2022/06/30 00:01:16;;;;;;;8.60;7.85;;;;;;;15.83;98.33;101048.31;1047231;28;20515;-82
2022/06/30 00:01:48;;;;;;;7.90;7.30;;;;;;;15.87;97.02;101051.31;1053246;28;20114;-82
2022/06/30 00:02:22;;;;;;;7.65;6.97;;;;;;;15.73;96.57;101046.28;1057130;27;20560;-82
2022/06/30 00:02:54;;;;;;;7.95;7.25;;;;;;;15.92;96.95;101048.72;1059201;27;20517;-82
2022/06/30 00:03:25;;;;;;;8.18;7.45;;;;;;;16.01;96.36;101041.84;1063341;27;20039;-82
2022/06/30 00:03:57;;;;;;;11.35;8.40;;;;;;;16.04;95.87;101041.38;1058365;27;20075;-82
2022/06/30 00:04:29;;;;;;;9.75;8.95;;;;;;;16.02;96.38;101043.47;1048125;28;20041;-83
2022/06/30 00:05:01;;;;;;;8.68;7.97;;;;;;;15.99;96.00;101050.16;1044506;28;20526;-82
2022/06/30 00:05:32;;;;;;;9.35;8.50;;;;;;;15.85;96.40;101040.00;1044769;28;20040;-82
2022/06/30 00:06:04;;;;;;;8.27;7.47;;;;;;;15.95;96.08;101042.84;1049119;27;20455;-82
2022/06/30 00:06:36;;;;;;;8.55;7.70;;;;;;;16.12;95.94;101037.44;1055175;28;20504;-82
2022/06/30 00:07:07;;;;;;;8.30;7.63;;;;;;;16.19;95.72;101032.72;1052558;28;20048;-82
2022/06/30 00:07:39;;;;;;;10.70;8.38;;;;;;;16.22;95.59;101037.59;1048807;28;20047;-82
2022/06/30 00:08:10;;;;;;;9.20;8.38;;;;;;;16.20;95.53;101037.84;1048764;28;20050;-82
2022/06/30 00:08:42;;;;;;;9.50;8.27;;;;;;;16.39;95.26;101038.31;1053242;28;20036;-82
2022/06/30 00:09:14;;;;;;;9.25;8.45;;;;;;;16.41;95.25;101036.19;1060745;27;20031;-82
2022/06/30 00:09:45;;;;;;;9.60;8.10;;;;;;;16.16;94.51;101042.09;1059572;27;20035;-82
2022/06/30 00:10:17;;;;;;;8.35;7.75;;;;;;;15.80;95.04;101034.56;1062595;27;20039;-82
2022/06/30 00:10:49;;;;;;;9.63;8.68;;;;;;;15.65;95.57;101035.97;1060643;27;20538;-82
2022/06/30 00:11:20;;;;;;;8.65;7.95;;;;;;;15.61;96.17;101042.88;1056429;28;20039;-82
2022/06/30 00:11:52;;;;;;;8.95;7.85;;;;;;;15.69;96.76;101038.97;1048808;28;20166;-82
2022/06/30 00:12:24;;;;;;;10.93;7.70;;;;;;;15.45;96.86;101038.28;1048603;28;20036;-82
2022/06/30 00:12:56;;;;;;;9.07;8.35;;;;;;;15.37;97.92;101034.13;1046525;28;20391;-82
2022/06/30 00:13:27;;;;;;;8.85;7.97;;;;;;;15.34;98.58;101033.78;1050074;28;20040;-82
2022/06/30 00:13:59;;;;;;;8.65;7.78;;;;;;;15.25;98.38;101035.25;1047935;28;20036;-83
2022/06/30 00:14:31;;;;;;;8.02;7.43;;;;;;;15.38;99.41;101043.81;1048883;28;20041;-82
2022/06/30 00:15:03;;;;;;;8.50;7.90;;;;;;;15.36;99.00;101039.75;1050969;28;20044;-82
2022/06/30 00:15:37;;;;;;;17.25;9.30;;;;;;;15.20;99.43;101038.66;1052999;28;20114;-82
2022/06/30 00:16:09;;;;;;;9.98;9.15;;;;;;;15.13;99.86;101038.00;1057570;27;20043;-82
2022/06/30 00:16:40;;;;;;;8.82;7.80;;;;;;;15.18;99.85;101042.66;1053663;28;20607;-82
2022/06/30 00:17:13;;;;;;;8.93;8.27;;;;;;;15.10;100.00;101036.63;1049479;28;20037;-82
2022/06/30 00:17:44;;;;;;;8.73;7.93;;;;;;;15.08;100.00;101036.06;1051447;28;20425;-82
2022/06/30 00:18:16;;;;;;;8.50;7.80;;;;;;;15.03;100.00;101041.31;1053683;27;20040;-82
2022/06/30 00:18:48;;;;;;;9.27;8.20;;;;;;;14.96;100.00;101037.97;1055306;28;20103;-82
2022/06/30 00:19:19;;;;;;;8.40;7.68;;;;;;;15.00;100.00;101036.41;1054193;28;20035;-82
2022/06/30 00:19:51;;;;;;;9.15;8.32;;;;;;;15.43;100.00;101040.41;1052687;28;20177;-82
2022/06/30 00:20:22;;;;;;;8.60;7.90;;;;;;;15.57;99.92;101030.94;1044965;28;20498;-82
2022/06/30 00:20:54;;;;;;;10.48;8.57;;;;;;;15.51;99.30;101037.31;1052975;28;20044;-82
2022/06/30 00:21:26;;;;;;;8.25;7.45;;;;;;;15.54;99.34;101033.31;1048642;28;20041;-82
2022/06/30 00:21:57;;;;;;;9.35;8.63;;;;;;;15.59;97.89;101028.88;1052860;28;20036;-82
2022/06/30 00:22:29;;;;;;;11.57;8.48;;;;;;;15.68;97.88;101032.78;1053001;28;20036;-82
2022/06/30 00:23:01;;;;;;;10.57;8.32;;;;;;;15.85;98.05;101035.44;1053027;28;20420;-82
2022/06/30 00:23:32;;;;;;;8.85;8.15;;;;;;;15.84;97.49;101031.13;1052129;28;20429;-82
2022/06/30 00:24:04;;;;;;;9.13;8.15;;;;;;;15.81;97.14;101036.19;1048600;28;20044;-82
2022/06/30 00:24:36;;;;;;;8.82;8.13;;;;;;;15.74;96.59;101031.78;1046843;28;20517;-82
2022/06/30 00:25:08;;;;;;;8.60;7.80;;;;;;;15.52;96.76;101038.13;1045164;28;20040;-82
2022/06/30 00:25:40;;;;;;;8.35;7.72;;;;;;;15.26;96.98;101036.88;1044483;28;20037;-82
2022/06/30 00:26:11;;;;;;;8.98;8.18;;;;;;;15.22;98.24;101039.22;1048264;28;20045;-82
2022/06/30 00:26:43;;;;;;;8.75;8.05;;;;;;;15.15;98.90;101036.72;1048364;28;20040;-82
2022/06/30 00:27:15;;;;;;;8.30;7.60;;;;;;;15.01;99.79;101032.69;1052166;27;20036;-82
2022/06/30 00:27:47;;;;;;;10.02;7.97;;;;;;;15.15;99.91;101034.03;1054529;28;20386;-82
2022/06/30 00:28:19;;;;;;;8.55;7.75;;;;;;;15.32;99.86;101027.84;1052367;28;20122;-82
2022/06/30 00:28:51;;;;;;;8.70;8.00;;;;;;;15.39;99.35;101034.72;1055974;28;20077;-82
2022/06/30 00:29:23;;;;;;;9.77;8.98;;;;;;;15.46;99.25;101029.16;1060137;27;20055;-82
2022/06/30 00:29:54;;;;;;;9.95;8.77;;;;;;;15.52;99.08;101025.50;1053943;28;20044;-82
2022/06/30 00:30:26;;;;;;;9.70;9.00;;;;;;;15.39;98.88;101028.53;1052338;28;20379;-82
2022/06/30 00:30:58;;;;;;;10.02;8.68;;;;;;;15.28;99.01;101030.22;1052405;28;20044;-82
2022/06/30 00:31:30;;;;;;;10.55;9.75;;;;;;;15.50;99.18;101024.13;1052667;28;20047;-82
2022/06/30 00:32:03;;;;;;;10.50;9.50;;;;;;;15.61;98.99;101023.25;1052399;28;20047;-82
2022/06/30 00:32:35;;;;;;;11.23;10.13;;;;;;;15.37;98.59;101030.63;1047002;28;20040;-82
2022/06/30 00:33:06;;;;;;;10.00;9.20;;;;;;;15.23;98.82;101023.94;1046665;28;20491;-82
2022/06/30 00:33:38;;;;;;;10.07;9.23;;;;;;;15.19;98.82;101028.16;1052060;28;20082;-82
2022/06/30 00:34:09;;;;;;;10.02;9.23;;;;;;;15.32;99.73;101027.84;1048386;28;20041;-82
2022/06/30 00:34:41;;;;;;;10.30;9.25;;;;;;;15.29;99.36;101026.47;1048809;28;20039;-82
2022/06/30 00:35:13;;;;;;;10.00;9.25;;;;;;;15.37;99.39;101031.47;1048514;28;20495;-82
2022/06/30 00:35:45;;;;;;;15.07;9.50;;;;;;;15.36;98.76;101029.00;1046578;28;20044;-82
2022/06/30 00:36:17;;;;;;;9.10;8.40;;;;;;;15.60;98.55;101025.13;1044250;28;20045;-82
2022/06/30 00:36:49;;;;;;;8.18;7.55;;;;;;;15.62;97.86;101023.03;1051979;28;20130;-82
2022/06/30 00:37:20;;;;;;;9.60;8.57;;;;;;;15.46;97.50;101023.81;1044490;28;20490;-82
2022/06/30 00:37:52;;;;;;;8.80;8.00;;;;;;;15.49;97.25;101011.75;1045059;28;20033;-82
2022/06/30 00:38:24;;;;;;;9.30;8.55;;;;;;;15.50;97.75;101022.25;1051466;28;20040;-82
2022/06/30 00:38:55;;;;;;;8.95;8.25;;;;;;;15.56;97.70;101023.13;1054146;28;20493;-82
2022/06/30 00:39:28;;;;;;;9.65;8.90;;;;;;;15.54;97.54;101018.00;1046021;28;20041;-82
2022/06/30 00:39:59;;;;;;;9.85;9.05;;;;;;;15.27;97.24;101025.09;1049387;28;20036;-82
2022/06/30 00:40:38;;;;;;;9.75;8.30;;;;;;;15.12;97.86;101020.28;1048642;28;20040;-82
2022/06/30 00:41:10;;;;;;;10.45;9.52;;;;;;;15.03;98.64;101019.84;1051447;28;20044;-82
2022/06/30 00:41:42;;;;;;;9.73;8.90;;;;;;;14.94;99.13;101015.94;1052457;28;20382;-82
2022/06/30 00:42:14;;;;;;;9.50;8.80;;;;;;;15.29;98.91;101012.22;1053745;28;20040;-82
2022/06/30 00:42:45;;;;;;;10.38;9.57;;;;;;;15.59;98.41;101023.50;1057079;27;20048;-82
2022/06/30 00:43:17;;;;;;;10.05;9.35;;;;;;;15.78;97.82;101021.38;1056514;28;20101;-82
2022/06/30 00:43:49;;;;;;;8.57;7.97;;;;;;;15.75;97.34;101020.00;1049592;28;20036;-82
2022/06/30 00:44:22;;;;;;;13.77;9.30;;;;;;;15.80;96.88;101015.75;1050034;28;20469;-82
2022/06/30 00:44:54;;;;;;;11.27;8.50;;;;;;;15.82;95.69;101010.94;1051534;28;20093;-82
2022/06/30 00:45:26;;;;;;;11.75;9.32;;;;;;;15.81;95.56;101017.38;1049795;28;20047;-82
2022/06/30 00:45:57;;;;;;;9.02;8.23;;;;;;;15.71;95.81;101021.56;1051972;28;20044;-82
2022/06/30 00:46:31;;;;;;;10.73;9.93;;;;;;;15.40;95.38;101019.41;1054487;28;20043;-82
2022/06/30 00:47:05;;;;;;;8.98;8.27;;;;;;;15.10;96.14;101017.84;1059426;27;20096;-82
2022/06/30 00:47:37;;;;;;;9.07;8.32;;;;;;;14.87;97.26;101015.28;1058099;27;20039;-81
2022/06/30 00:48:10;;;;;;;8.95;8.27;;;;;;;14.84;98.50;101015.75;1055550;28;20391;-82
2022/06/30 00:48:42;;;;;;;9.65;8.80;;;;;;;15.13;98.04;101016.53;1045852;28;20045;-82
2022/06/30 00:49:17;;;;;;;9.93;9.13;;;;;;;15.19;98.34;101017.44;1041916;28;20045;-82
2022/06/30 00:49:48;;;;;;;10.10;9.07;;;;;;;15.05;98.58;101017.72;1044863;28;20273;-82
2022/06/30 00:50:20;;;;;;;9.18;8.55;;;;;;;14.84;99.01;101011.19;1048652;28;20402;-82
2022/06/30 00:50:52;;;;;;;9.40;8.70;;;;;;;14.79;99.72;101012.94;1049044;28;20091;-82
2022/06/30 00:51:24;;;;;;;10.45;9.45;;;;;;;14.77;100.00;101007.00;1051082;28;20564;-81
2022/06/30 00:51:55;;;;;;;10.57;9.48;;;;;;;14.99;100.00;101007.97;1048785;28;20044;-82
2022/06/30 00:52:28;;;;;;;10.55;9.57;;;;;;;14.88;99.99;101013.41;1048270;28;20411;-82
2022/06/30 00:53:02;;;;;;;9.98;9.07;;;;;;;14.72;100.00;101017.66;1048915;28;20490;-82
2022/06/30 00:53:41;;;;;;;9.80;9.05;;;;;;;14.59;100.00;101007.22;1049107;28;20098;-82
2022/06/30 00:54:13;;;;;;;11.35;9.25;;;;;;;14.52;100.00;101018.91;1051422;28;20049;-82
2022/06/30 00:54:45;;;;;;;11.55;9.70;;;;;;;14.53;100.00;101009.00;1052289;28;20032;-82
2022/06/30 00:55:18;;;;;;;9.85;8.95;;;;;;;14.61;100.00;101008.59;1050028;28;20040;-81
2022/06/30 00:55:51;;;;;;;9.57;8.80;;;;;;;14.63;100.00;101008.38;1046840;28;20045;-82
2022/06/30 00:56:25;;;;;;;9.57;8.63;;;;;;;14.94;100.00;101007.88;1044858;28;20494;-82
2022/06/30 00:56:58;;;;;;;11.50;10.48;;;;;;;14.84;100.00;101005.03;1045266;28;20402;-82
2022/06/30 00:57:30;;;;;;;10.23;9.38;;;;;;;14.81;100.00;101008.19;1045067;28;20514;-82
2022/06/30 00:58:04;;;;;;;10.52;9.38;;;;;;;14.79;100.00;101007.59;1050457;28;20044;-82
2022/06/30 00:58:40;;;;;;;10.88;9.88;;;;;;;15.10;100.00;101007.09;1052992;28;20102;-82
2022/06/30 00:59:16;;;;;;;10.80;9.80;;;;;;;15.36;100.00;101002.19;1053514;28;20040;-82
2022/06/30 00:59:48;;;;;;;10.02;9.23;;;;;;;15.39;100.00;101007.06;1054164;28;20059;-81
2022/06/30 01:00:20;;;;;;;10.77;9.98;;;;;;;15.51;99.87;101005.09;1054259;28;20035;-82
2022/06/30 01:00:52;;;;;;;9.65;8.85;;;;;;;15.53;99.07;101002.97;1050516;28;20409;-81
2022/06/30 01:01:24;;;;;;;9.80;9.10;;;;;;;15.52;98.74;100997.84;1050426;28;20039;-82
2022/06/30 01:01:59;;;;;;;10.68;9.68;;;;;;;15.52;98.53;101006.72;1046813;28;20040;-82
2022/06/30 01:02:32;;;;;;;9.98;9.07;;;;;;;15.33;98.50;101002.63;1049391;28;20048;-82
2022/06/30 01:03:05;;;;;;;10.13;9.23;;;;;;;15.27;98.24;101004.44;1047702;28;20066;-81
2022/06/30 01:03:37;;;;;;;9.82;8.85;;;;;;;15.10;97.95;100999.06;1053321;28;20066;-82
2022/06/30 01:04:09;;;;;;;9.73;8.93;;;;;;;14.98;98.55;101000.97;1053237;28;20090;-82
2022/06/30 01:04:41;;;;;;;9.73;8.98;;;;;;;15.24;98.38;101004.09;1053139;28;20040;-81
2022/06/30 01:05:13;;;;;;;10.07;9.25;;;;;;;15.42;98.33;101001.19;1054143;28;20051;-82
2022/06/30 01:05:46;;;;;;;9.68;8.98;;;;;;;15.35;98.64;100995.19;1050436;28;20040;-82
2022/06/30 01:06:18;;;;;;;9.18;8.50;;;;;;;15.36;98.25;101002.19;1046329;28;20068;-82
2022/06/30 01:06:50;;;;;;;10.93;9.93;;;;;;;15.36;98.65;101000.31;1052450;28;20413;-82
2022/06/30 01:07:22;;;;;;;10.55;9.65;;;;;;;15.38;98.49;101000.88;1049520;28;20036;-81
2022/06/30 01:07:54;;;;;;;9.90;8.82;;;;;;;15.36;98.48;100996.81;1053006;28;20051;-82
2022/06/30 01:08:26;;;;;;;9.80;8.90;;;;;;;15.45;98.43;100989.97;1053345;28;20036;-82
2022/06/30 01:08:57;;;;;;;10.93;9.25;;;;;;;15.50;97.87;100997.28;1052814;28;20105;-82
2022/06/30 01:12:52;;;;;;;9.57;8.77;;;;;;;15.41;97.33;100996.88;1056173;28;20039;-82
2022/06/30 01:13:24;;;;;;;9.35;8.65;;;;;;;15.48;97.14;100994.84;1054728;27;20044;-82
2022/06/30 01:13:55;;;;;;;10.05;9.05;;;;;;;15.18;97.43;100992.47;1056358;28;20314;-82
2022/06/30 01:14:27;;;;;;;9.40;8.57;;;;;;;15.23;97.67;100991.75;1055431;28;20048;-82
2022/06/30 01:15:01;;;;;;;10.07;9.18;;;;;;;15.22;97.52;101000.84;1055009;28;20195;-81
2022/06/30 01:15:32;;;;;;;10.13;8.68;;;;;;;15.07;98.45;101002.22;1050659;28;20154;-81
2022/06/30 01:16:04;;;;;;;10.55;9.20;;;;;;;15.27;98.53;101004.44;1048367;28;20041;-82
2022/06/30 01:16:42;;;;;;;10.60;8.43;;;;;;;15.09;97.55;101002.81;1044565;28;20127;-82
2022/06/30 01:17:14;;;;;;;8.95;8.13;;;;;;;15.11;97.39;101000.69;1054635;27;20042;-82
2022/06/30 01:17:46;;;;;;;8.85;8.02;;;;;;;14.99;97.65;100999.09;1057903;27;20046;-82
2022/06/30 01:18:18;;;;;;;10.23;7.90;;;;;;;15.22;97.26;101000.84;1049671;28;20047;-82
2022/06/30 01:18:49;;;;;;;11.23;8.13;;;;;;;15.37;97.50;100993.06;1045845;28;20067;-82
2022/06/30 01:19:21;;;;;;;9.90;9.00;;;;;;;15.22;97.29;101006.22;1046230;28;20491;-82
2022/06/30 01:19:56;;;;;;;10.65;9.55;;;;;;;14.93;97.48;101002.75;1051553;27;20043;-82
2022/06/30 01:20:30;;;;;;;10.25;9.35;;;;;;;14.84;99.05;100996.97;1057687;27;20031;-82
2022/06/30 01:21:02;;;;;;;11.02;9.50;;;;;;;15.03;99.87;100998.38;1051987;28;20095;-82
2022/06/30 01:21:34;;;;;;;10.98;9.88;;;;;;;15.30;99.13;100992.38;1044820;28;20041;-82
2022/06/30 01:22:05;;;;;;;11.15;9.98;;;;;;;15.35;99.35;100995.19;1046521;28;20049;-82
2022/06/30 01:22:38;;;;;;;11.77;10.60;;;;;;;15.32;98.50;100990.28;1047900;28;20032;-82
2022/06/30 01:23:09;;;;;;;26.85;10.30;;;;;;;15.31;98.35;101000.19;1052159;28;20042;-82
2022/06/30 01:23:41;;;;;;;18.98;11.38;;;;;;;15.42;97.95;100995.81;1044561;28;20409;-82
2022/06/30 01:24:13;;;;;;;18.02;11.10;;;;;;;15.51;97.99;100993.53;1044264;28;20041;-82
2022/06/30 01:24:44;;;;;;;11.25;10.05;;;;;;;15.27;97.72;100992.88;1043023;28;20052;-82
2022/06/30 01:25:16;;;;;;;11.57;10.43;;;;;;;15.30;97.62;101003.13;1047962;28;20047;-82
2022/06/30 01:25:47;;;;;;;15.73;9.80;;;;;;;15.40;97.77;100998.75;1044204;28;20041;-82
2022/06/30 01:26:22;;;;;;;10.65;9.60;;;;;;;15.12;98.10;101002.31;1043710;28;20092;-82
2022/06/30 01:26:57;;;;;;;12.93;9.88;;;;;;;15.14;99.15;101004.75;1053108;28;20260;-82
2022/06/30 01:27:29;;;;;;;17.00;10.52;;;;;;;15.18;99.06;101008.56;1051987;28;20046;-82
2022/06/30 01:28:01;;;;;;;15.85;10.38;;;;;;;15.34;99.94;101001.56;1053548;28;20494;-82
2022/06/30 01:28:32;;;;;;;12.75;10.95;;;;;;;15.44;99.67;100999.06;1053167;28;20040;-82
2022/06/30 01:29:07;;;;;;;15.63;11.07;;;;;;;15.43;98.39;101008.19;1052793;28;20040;-82
2022/06/30 01:29:39;;;;;;;17.65;9.75;;;;;;;15.41;98.19;100997.69;1051238;28;20473;-82
2022/06/30 01:30:11;;;;;;;12.52;10.95;;;;;;;15.39;98.37;100996.31;1047747;28;20066;-82
2022/06/30 01:30:43;;;;;;;10.68;9.77;;;;;;;14.99;98.43;101007.97;1047142;28;20067;-81
2022/06/30 01:31:14;;;;;;;11.80;10.40;;;;;;;14.92;99.18;101007.31;1047139;28;20045;-82
2022/06/30 01:31:46;;;;;;;16.85;11.30;;;;;;;15.08;100.00;101001.19;1048335;28;20052;-81
2022/06/30 01:32:18;;;;;;;10.68;9.68;;;;;;;15.23;99.85;100997.91;1053298;27;20040;-82
2022/06/30 01:32:50;;;;;;;11.15;10.18;;;;;;;15.30;99.56;100995.06;1052454;28;20040;-82
2022/06/30 01:33:22;;;;;;;11.95;10.85;;;;;;;15.46;98.86;101002.31;1052614;28;20040;-82
2022/06/30 01:33:53;;;;;;;10.80;9.90;;;;;;;15.11;99.61;100994.50;1052052;28;20044;-82
2022/06/30 01:34:25;;;;;;;10.95;9.82;;;;;;;15.33;99.67;100995.41;1049451;28;20037;-82
2022/06/30 01:34:57;;;;;;;11.65;10.45;;;;;;;15.44;98.96;100999.06;1048583;28;20486;-81
2022/06/30 01:35:31;;;;;;;10.90;9.82;;;;;;;15.42;98.98;100999.31;1048417;28;20044;-81
2022/06/30 01:36:02;;;;;;;10.90;9.57;;;;;;;15.41;98.42;100994.19;1047588;28;20498;-82
2022/06/30 01:36:34;;;;;;;11.55;10.35;;;;;;;14.93;98.99;100997.41;1047573;28;20040;-82
2022/06/30 01:37:06;;;;;;;12.18;10.35;;;;;;;14.89;99.95;100997.06;1052258;28;20055;-82
2022/06/30 01:37:51;;;;;;;11.60;10.50;;;;;;;14.99;100.00;101002.59;1048137;28;20044;-82
2022/06/30 01:38:23;;;;;;;10.77;9.77;;;;;;;15.26;100.00;100997.44;1056216;28;20078;-82
2022/06/30 01:38:54;;;;;;;14.18;10.73;;;;;;;15.17;100.00;100998.91;1051951;28;20044;-81
2022/06/30 01:39:28;;;;;;;13.75;9.63;;;;;;;15.27;100.00;101001.75;1054851;28;20040;-82
2022/06/30 01:39:59;;;;;;;11.55;10.57;;;;;;;15.27;99.69;100998.25;1056420;28;20036;-82
2022/06/30 01:40:36;;;;;;;12.23;10.43;;;;;;;15.24;100.00;100999.53;1052849;28;20040;-82
2022/06/30 01:41:08;;;;;;;10.68;9.77;;;;;;;15.38;99.12;101000.06;1047862;28;20048;-82
2022/06/30 01:41:39;;;;;;;10.93;9.75;;;;;;;15.44;98.47;100997.19;1045107;28;20045;-82
2022/06/30 01:42:12;;;;;;;11.10;10.13;;;;;;;15.40;98.27;100993.38;1049245;28;20569;-82
2022/06/30 01:42:43;;;;;;;11.18;9.82;;;;;;;15.26;98.32;101001.97;1048339;28;20032;-82
2022/06/30 01:43:15;;;;;;;11.20;10.30;;;;;;;15.27;98.54;100998.25;1045272;28;20041;-82
2022/06/30 01:43:47;;;;;;;11.40;10.30;;;;;;;15.01;98.91;101000.50;1052374;28;20471;-82
2022/06/30 01:44:18;;;;;;;10.27;9.48;;;;;;;14.79;99.01;100991.50;1051747;28;20055;-82
2022/06/30 01:44:50;;;;;;;10.52;9.43;;;;;;;14.81;99.72;100992.09;1054759;28;20106;-82
2022/06/30 01:45:22;;;;;;;14.13;9.98;;;;;;;14.79;100.00;100994.19;1054609;27;20054;-82
2022/06/30 01:45:54;;;;;;;13.05;11.18;;;;;;;14.75;100.00;100995.72;1057450;27;20638;-82
2022/06/30 01:46:26;;;;;;;12.02;11.02;;;;;;;14.70;100.00;100993.75;1050459;28;20052;-81
2022/06/30 01:46:57;;;;;;;11.95;10.10;;;;;;;14.85;100.00;101001.28;1049780;28;20033;-81
2022/06/30 01:47:29;;;;;;;11.18;10.20;;;;;;;14.97;100.00;100993.97;1052193;28;20078;-81
2022/06/30 01:48:01;;;;;;;11.55;10.27;;;;;;;14.82;100.00;100991.03;1053491;27;20134;-81
2022/06/30 01:48:32;;;;;;;10.63;9.65;;;;;;;14.74;100.00;100988.72;1056475;28;20139;-82
2022/06/30 01:49:04;;;;;;;12.32;11.10;;;;;;;14.70;100.00;100987.59;1055185;28;20032;-82
2022/06/30 01:49:36;;;;;;;12.65;11.20;;;;;;;14.61;100.00;100989.03;1054840;28;20044;-81
2022/06/30 01:50:11;;;;;;;13.73;12.45;;;;;;;14.66;100.00;100992.63;1052873;28;20049;-81
2022/06/30 01:50:43;;;;;;;12.57;11.57;;;;;;;14.87;100.00;100982.28;1053106;28;20040;-82
2022/06/30 01:51:15;;;;;;;19.90;12.55;;;;;;;14.82;100.00;100991.03;1056163;27;20072;-81
2022/06/30 01:51:46;;;;;;;12.90;11.80;;;;;;;14.82;100.00;100985.69;1060813;27;20047;-81
2022/06/30 01:52:18;;;;;;;13.93;12.52;;;;;;;14.94;100.00;100983.75;1056568;27;20074;-81
2022/06/30 01:52:49;;;;;;;14.02;12.73;;;;;;;15.06;100.00;100989.03;1056324;27;20465;-81
2022/06/30 01:53:21;;;;;;;13.07;11.57;;;;;;;15.14;100.00;100983.28;1054252;28;20043;-81
2022/06/30 01:53:53;;;;;;;12.40;11.38;;;;;;;15.02;100.00;100988.69;1052033;28;20545;-81
2022/06/30 01:54:25;;;;;;;18.67;11.52;;;;;;;14.97;100.00;100985.94;1051769;28;20036;-81
2022/06/30 01:54:56;;;;;;;12.75;11.65;;;;;;;14.85;100.00;100979.84;1052317;28;20113;-81
2022/06/30 01:55:28;;;;;;;13.57;12.27;;;;;;;14.76;100.00;100983.94;1049906;28;20170;-80
2022/06/30 01:56:00;;;;;;;13.73;12.45;;;;;;;14.65;100.00;100984.81;1048978;28;20044;-79
2022/06/30 01:56:31;;;;;;;13.48;12.27;;;;;;;14.68;100.00;100982.47;1047462;28;20047;-79
2022/06/30 01:57:03;;;;;;;13.32;11.13;;;;;;;14.50;100.00;100975.41;1048582;28;20044;-79
2022/06/30 01:57:36;;;;;;;12.10;10.95;;;;;;;14.39;100.00;100981.59;1048051;28;20043;-80
2022/06/30 01:58:08;;;;;;;11.40;10.40;;;;;;;14.62;100.00;100986.09;1051626;28;20048;-80
2022/06/30 01:58:39;;;;;;;13.02;11.02;;;;;;;14.75;100.00;100977.75;1046463;28;20052;-80
2022/06/30 01:59:12;;;;;;;11.13;10.07;;;;;;;14.58;100.00;100979.59;1048348;28;20506;-80
2022/06/30 01:59:43;;;;;;;12.10;11.10;;;;;;;14.92;100.00;100983.16;1052173;28;20593;-80
2022/06/30 02:00:18;;;;;;;12.63;11.25;;;;;;;15.11;100.00;100984.59;1051440;27;20041;-79
2022/06/30 02:00:49;;;;;;;12.85;11.40;;;;;;;15.21;100.00;100978.56;1055235;28;20370;-79
2022/06/30 02:01:21;;;;;;;11.90;10.10;;;;;;;15.30;100.00;100977.09;1051743;28;20110;-79
2022/06/30 02:01:53;;;;;;;10.80;9.95;;;;;;;15.15;100.00;100977.69;1049840;28;20179;-79
2022/06/30 02:02:25;;;;;;;11.15;9.95;;;;;;;14.85;100.00;100979.84;1053328;27;20068;-79
2022/06/30 02:02:57;;;;;;;11.05;10.02;;;;;;;14.80;99.49;100979.75;1057197;27;20470;-80
2022/06/30 02:03:29;;;;;;;11.32;10.27;;;;;;;14.86;99.94;100977.97;1052114;28;20052;-80
2022/06/30 02:04:46;;;;;;;12.35;11.15;;;;;;;15.05;100.00;100980.16;1048685;28;20503;-79
2022/06/30 02:04:53;;;;;;;13.25;10.60;;;;;;;14.71;100.00;100978.47;1048961;28;20056;-79
2022/06/30 02:05:25;;;;;;;11.75;10.45;;;;;;;14.93;100.00;100981.31;1058765;27;20051;-79
2022/06/30 02:05:57;;;;;;;11.15;10.25;;;;;;;14.77;100.00;100980.19;1058260;27;20133;-79
2022/06/30 02:06:29;;;;;;;11.52;10.55;;;;;;;14.78;100.00;100969.22;1056319;28;20032;-80
2022/06/30 02:07:00;;;;;;;12.10;11.00;;;;;;;15.02;100.00;100975.28;1051781;28;20040;-80
2022/06/30 02:07:36;;;;;;;12.07;10.82;;;;;;;14.57;100.00;100972.63;1048650;28;20341;-79
2022/06/30 02:08:08;;;;;;;11.45;10.55;;;;;;;14.54;100.00;100973.09;1049092;28;20322;-80
2022/06/30 02:08:39;;;;;;;13.38;12.18;;;;;;;14.66;100.00;100975.72;1053914;28;20036;-80
2022/06/30 02:09:11;;;;;;;13.48;12.40;;;;;;;14.97;100.00;100982.44;1051733;28;20429;-80
2022/06/30 02:09:43;;;;;;;14.85;12.88;;;;;;;15.09;100.00;100981.34;1052061;28;20433;-79
2022/06/30 02:10:18;;;;;;;14.85;13.38;;;;;;;15.29;100.00;100977.34;1052154;28;20048;-79
2022/06/30 02:10:49;;;;;;;15.02;13.45;;;;;;;15.43;100.00;100976.78;1050899;28;20036;-80
2022/06/30 02:11:21;;;;;;;14.93;13.73;;;;;;;15.49;100.00;100987.59;1053468;27;20165;-80
2022/06/30 02:12:44;;;;;;;14.52;13.02;;;;;;;15.36;99.97;100980.69;1047800;28;20048;-80
2022/06/30 02:12:46;;;;;;;13.10;11.88;;;;;;;15.16;100.00;100975.81;1050469;28;20052;-79
2022/06/30 02:13:17;;;;;;;13.13;12.13;;;;;;;15.27;99.95;100984.81;1047576;28;20127;-80
2022/06/30 02:13:49;;;;;;;13.95;12.55;;;;;;;15.41;98.97;100988.81;1057842;27;20050;-80
2022/06/30 02:14:26;;;;;;;12.65;11.55;;;;;;;15.40;99.04;100989.88;1057443;27;20043;-80
2022/06/30 02:14:58;;;;;;;12.52;11.43;;;;;;;15.33;98.36;100983.84;1057627;27;20043;-80
2022/06/30 02:15:33;;;;;;;11.98;11.00;;;;;;;15.28;98.92;100984.59;1060407;27;20043;-80
2022/06/30 02:16:05;;;;;;;13.60;12.40;;;;;;;15.26;98.73;100989.38;1056716;27;20051;-80
2022/06/30 02:16:37;;;;;;;13.70;12.57;;;;;;;15.33;98.51;100984.66;1055004;28;20044;-80
2022/06/30 02:17:08;;;;;;;15.95;12.38;;;;;;;15.29;99.09;100986.22;1040929;28;20079;-80
2022/06/30 02:17:41;;;;;;;12.15;11.05;;;;;;;15.19;98.17;100986.06;1043433;28;20043;-80
2022/06/30 02:18:13;;;;;;;12.30;11.25;;;;;;;15.18;98.41;100987.09;1052123;28;20040;-79
2022/06/30 02:18:44;;;;;;;13.35;12.05;;;;;;;15.21;98.38;100991.16;1052562;28;20036;-80
2022/06/30 02:19:17;;;;;;;11.45;10.43;;;;;;;14.95;97.65;100980.00;1056073;28;20042;-80
2022/06/30 02:19:48;;;;;;;13.98;12.57;;;;;;;14.78;99.02;100987.19;1052032;28;20044;-80
2022/06/30 02:20:22;;;;;;;13.85;12.65;;;;;;;14.83;99.93;100982.75;1050466;28;20040;-80
2022/06/30 02:20:54;;;;;;;14.57;12.98;;;;;;;14.80;100.00;100982.44;1051708;28;20521;-79
2022/06/30 02:21:26;;;;;;;15.90;14.48;;;;;;;14.77;100.00;100993.59;1048416;28;20044;-80
2022/06/30 02:21:57;;;;;;;15.23;13.80;;;;;;;14.72;100.00;100980.94;1043722;28;20040;-80
2022/06/30 02:22:29;;;;;;;14.48;13.38;;;;;;;14.73;100.00;100981.75;1043302;28;20132;-79
2022/06/30 02:23:03;;;;;;;15.48;14.18;;;;;;;14.67;100.00;100988.06;1047613;28;20182;-82
2022/06/30 02:23:34;;;;;;;15.52;14.23;;;;;;;14.52;100.00;100985.94;1052161;28;20036;-80
2022/06/30 02:24:06;;;;;;;15.02;13.70;;;;;;;14.56;100.00;100987.06;1052095;28;20040;-79
2022/06/30 02:24:38;;;;;;;14.43;13.23;;;;;;;14.55;100.00;100984.63;1050165;28;20571;-79
2022/06/30 02:25:09;;;;;;;13.60;12.50;;;;;;;14.65;100.00;100984.81;1047646;28;20041;-80
2022/06/30 02:25:42;;;;;;;15.27;12.38;;;;;;;14.57;100.00;100977.97;1042350;28;20052;-80
2022/06/30 02:26:14;;;;;;;14.07;12.90;;;;;;;14.51;100.00;100979.72;1048219;28;20045;-79
2022/06/30 02:26:45;;;;;;;13.35;11.90;;;;;;;14.70;100.00;100984.91;1048375;28;20486;-79
2022/06/30 02:27:21;;;;;;;13.52;12.43;;;;;;;14.82;100.00;100986.50;1047047;28;20041;-80
2022/06/30 02:27:52;;;;;;;13.45;11.48;;;;;;;14.87;100.00;100984.97;1051524;28;20036;-80
2022/06/30 02:28:24;;;;;;;12.98;11.88;;;;;;;14.81;100.00;100981.38;1044294;28;20521;-79
2022/06/30 02:28:56;;;;;;;12.45;11.45;;;;;;;14.94;100.00;100982.94;1049021;28;20040;-79
2022/06/30 02:29:27;;;;;;;14.68;12.70;;;;;;;14.93;100.00;100984.81;1043585;28;20045;-80
2022/06/30 02:29:59;;;;;;;12.90;11.80;;;;;;;14.73;100.00;100987.09;1047514;28;20047;-80
2022/06/30 02:30:32;;;;;;;13.27;11.63;;;;;;;14.56;100.00;100978.22;1048949;28;20042;-82
2022/06/30 02:31:04;;;;;;;13.07;12.00;;;;;;;14.39;100.00;100986.97;1053261;28;20048;-81
2022/06/30 02:31:36;;;;;;;12.45;11.32;;;;;;;14.37;100.00;100983.72;1056677;28;20035;-80